Terminal Aerodrome Forecast
Issued by NWS Rapid City, SD

Home | Current Version | Previous Version | Graphics & Text | Print | Product List | Glossary On
Versions: 1 2 3 4 5 6 7 8 9 10 11 12 13 14 15 16 17 18 19 20 21 22 23
752
FTUS43 KUNR 281045 AAC
TAFRAP
TAF AMD
KRAP 281045Z 2811/0106 VRB05KT 2SM BR BKN003 OVC010
     FM281800 05006KT P6SM VCSH BKN020
      TEMPO 2819/2823 3SM -SHSN BKN015=

USA.gov is the U.S. government's official web portal to all federal, state and local government web resources and services.